sensor_id;sensor_type;location;lat;lon;timestamp;P1;durP1;ratioP1;P2;durP2;ratioP2
53751;SDS011;41095;53.090;6.692;2023-04-03T00:02:07;2.83;;;1.08;;
53751;SDS011;41095;53.090;6.692;2023-04-03T00:04:33;1.38;;;1.27;;
53751;SDS011;41095;53.090;6.692;2023-04-03T00:06:58;1.35;;;0.82;;
53751;SDS011;41095;53.090;6.692;2023-04-03T00:09:24;4.47;;;1.42;;
53751;SDS011;41095;53.090;6.692;2023-04-03T00:11:50;1.15;;;0.90;;
53751;SDS011;41095;53.090;6.692;2023-04-03T00:14:15;1.23;;;0.85;;
53751;SDS011;41095;53.090;6.692;2023-04-03T00:16:41;1.77;;;1.63;;
53751;SDS011;41095;53.090;6.692;2023-04-03T00:19:07;4.13;;;1.05;;
53751;SDS011;41095;53.090;6.692;2023-04-03T00:21:33;2.97;;;0.90;;
53751;SDS011;41095;53.090;6.692;2023-04-03T00:23:59;3.20;;;1.27;;
53751;SDS011;41095;53.090;6.692;2023-04-03T00:26:24;1.35;;;1.20;;
53751;SDS011;41095;53.090;6.692;2023-04-03T00:28:50;1.40;;;0.90;;
53751;SDS011;41095;53.090;6.692;2023-04-03T00:31:16;1.25;;;0.98;;
53751;SDS011;41095;53.090;6.692;2023-04-03T00:33:42;2.00;;;0.90;;
53751;SDS011;41095;53.090;6.692;2023-04-03T00:36:08;1.08;;;1.08;;
53751;SDS011;41095;53.090;6.692;2023-04-03T00:38:35;1.52;;;1.10;;
53751;SDS011;41095;53.090;6.692;2023-04-03T00:41:01;4.13;;;2.15;;
53751;SDS011;41095;53.090;6.692;2023-04-03T00:43:28;2.20;;;1.40;;
53751;SDS011;41095;53.090;6.692;2023-04-03T00:45:57;1.33;;;1.02;;
53751;SDS011;41095;53.090;6.692;2023-04-03T00:48:39;2.22;;;1.33;;
53751;SDS011;41095;53.090;6.692;2023-04-03T00:51:09;3.05;;;1.45;;
53751;SDS011;41095;53.090;6.692;2023-04-03T00:53:39;2.28;;;1.02;;
53751;SDS011;41095;53.090;6.692;2023-04-03T00:56:08;1.88;;;1.17;;
53751;SDS011;41095;53.090;6.692;2023-04-03T00:58:39;2.15;;;1.75;;
53751;SDS011;41095;53.090;6.692;2023-04-03T01:01:15;2.67;;;1.30;;
53751;SDS011;41095;53.090;6.692;2023-04-03T01:03:45;2.25;;;1.60;;
53751;SDS011;41095;53.090;6.692;2023-04-03T01:06:11;2.53;;;1.50;;
53751;SDS011;41095;53.090;6.692;2023-04-03T01:08:39;1.85;;;1.40;;
53751;SDS011;41095;53.090;6.692;2023-04-03T01:11:05;2.80;;;2.03;;
53751;SDS011;41095;53.090;6.692;2023-04-03T01:13:31;3.35;;;1.50;;
53751;SDS011;41095;53.090;6.692;2023-04-03T01:16:01;1.88;;;1.27;;
53751;SDS011;41095;53.090;6.692;2023-04-03T01:18:30;5.72;;;1.95;;
53751;SDS011;41095;53.090;6.692;2023-04-03T01:26:55;2.10;;;1.40;;
53751;SDS011;41095;53.090;6.692;2023-04-03T01:29:20;2.75;;;1.60;;
53751;SDS011;41095;53.090;6.692;2023-04-03T01:34:16;3.28;;;1.40;;
53751;SDS011;41095;53.090;6.692;2023-04-03T01:36:42;1.60;;;1.05;;
53751;SDS011;41095;53.090;6.692;2023-04-03T01:39:08;3.38;;;1.60;;
53751;SDS011;41095;53.090;6.692;2023-04-03T01:41:33;3.42;;;1.58;;
53751;SDS011;41095;53.090;6.692;2023-04-03T01:43:59;2.75;;;1.73;;
53751;SDS011;41095;53.090;6.692;2023-04-03T01:46:25;4.38;;;1.58;;
53751;SDS011;41095;53.090;6.692;2023-04-03T01:48:50;4.75;;;1.38;;
53751;SDS011;41095;53.090;6.692;2023-04-03T01:51:16;3.85;;;1.65;;
53751;SDS011;41095;53.090;6.692;2023-04-03T01:53:42;1.35;;;1.25;;
53751;SDS011;41095;53.090;6.692;2023-04-03T01:56:08;2.38;;;1.42;;
53751;SDS011;41095;53.090;6.692;2023-04-03T01:58:34;4.35;;;1.90;;
53751;SDS011;41095;53.090;6.692;2023-04-03T02:00:59;2.40;;;1.90;;
53751;SDS011;41095;53.090;6.692;2023-04-03T02:03:25;4.40;;;1.48;;
53751;SDS011;41095;53.090;6.692;2023-04-03T02:05:51;2.10;;;1.30;;
53751;SDS011;41095;53.090;6.692;2023-04-03T02:08:17;3.55;;;1.42;;
53751;SDS011;41095;53.090;6.692;2023-04-03T02:10:49;1.83;;;1.73;;
53751;SDS011;41095;53.090;6.692;2023-04-03T02:13:15;4.82;;;1.52;;
53751;SDS011;41095;53.090;6.692;2023-04-03T02:15:41;2.10;;;1.48;;
53751;SDS011;41095;53.090;6.692;2023-04-03T02:18:07;3.08;;;1.67;;
53751;SDS011;41095;53.090;6.692;2023-04-03T02:20:33;4.82;;;2.13;;
53751;SDS011;41095;53.090;6.692;2023-04-03T02:22:59;1.80;;;1.70;;
53751;SDS011;41095;53.090;6.692;2023-04-03T02:25:25;2.38;;;1.70;;
53751;SDS011;41095;53.090;6.692;2023-04-03T02:27:51;3.67;;;1.65;;
53751;SDS011;41095;53.090;6.692;2023-04-03T02:30:17;3.80;;;2.00;;
53751;SDS011;41095;53.090;6.692;2023-04-03T02:32:43;1.98;;;1.75;;
53751;SDS011;41095;53.090;6.692;2023-04-03T02:35:09;3.13;;;1.60;;
53751;SDS011;41095;53.090;6.692;2023-04-03T02:37:36;3.38;;;2.00;;
53751;SDS011;41095;53.090;6.692;2023-04-03T02:40:02;3.63;;;1.83;;
53751;SDS011;41095;53.090;6.692;2023-04-03T02:42:28;4.00;;;2.13;;
53751;SDS011;41095;53.090;6.692;2023-04-03T02:44:54;3.25;;;1.98;;
53751;SDS011;41095;53.090;6.692;2023-04-03T02:47:20;2.22;;;1.45;;
53751;SDS011;41095;53.090;6.692;2023-04-03T02:49:46;4.15;;;2.25;;
53751;SDS011;41095;53.090;6.692;2023-04-03T02:52:12;3.47;;;1.88;;
53751;SDS011;41095;53.090;6.692;2023-04-03T02:54:39;3.25;;;1.95;;
53751;SDS011;41095;53.090;6.692;2023-04-03T02:57:04;3.95;;;2.03;;
53751;SDS011;41095;53.090;6.692;2023-04-03T02:59:32;3.17;;;2.00;;
53751;SDS011;41095;53.090;6.692;2023-04-03T03:01:58;1.85;;;1.42;;
53751;SDS011;41095;53.090;6.692;2023-04-03T03:04:24;5.20;;;1.80;;
53751;SDS011;41095;53.090;6.692;2023-04-03T03:06:50;3.15;;;1.67;;
53751;SDS011;41095;53.090;6.692;2023-04-03T03:09:15;4.90;;;1.80;;
53751;SDS011;41095;53.090;6.692;2023-04-03T03:11:41;3.85;;;1.70;;
53751;SDS011;41095;53.090;6.692;2023-04-03T03:14:07;2.13;;;1.60;;
53751;SDS011;41095;53.090;6.692;2023-04-03T03:16:33;2.75;;;1.85;;
53751;SDS011;41095;53.090;6.692;2023-04-03T03:18:58;4.38;;;2.55;;
53751;SDS011;41095;53.090;6.692;2023-04-03T03:21:24;3.38;;;1.83;;
53751;SDS011;41095;53.090;6.692;2023-04-03T03:23:51;3.40;;;2.00;;
53751;SDS011;41095;53.090;6.692;2023-04-03T03:26:16;4.80;;;2.35;;
53751;SDS011;41095;53.090;6.692;2023-04-03T03:28:42;3.53;;;1.83;;
53751;SDS011;41095;53.090;6.692;2023-04-03T03:31:08;2.15;;;1.92;;
53751;SDS011;41095;53.090;6.692;2023-04-03T03:33:35;4.68;;;2.78;;
53751;SDS011;41095;53.090;6.692;2023-04-03T03:36:00;2.95;;;2.30;;
53751;SDS011;41095;53.090;6.692;2023-04-03T03:38:26;4.38;;;1.90;;
53751;SDS011;41095;53.090;6.692;2023-04-03T03:40:52;4.97;;;2.08;;
53751;SDS011;41095;53.090;6.692;2023-04-03T03:43:18;3.38;;;2.42;;
53751;SDS011;41095;53.090;6.692;2023-04-03T03:45:44;4.10;;;2.55;;
53751;SDS011;41095;53.090;6.692;2023-04-03T03:48:11;3.28;;;2.20;;
53751;SDS011;41095;53.090;6.692;2023-04-03T03:50:37;3.00;;;2.10;;
53751;SDS011;41095;53.090;6.692;2023-04-03T03:53:02;3.72;;;2.65;;
53751;SDS011;41095;53.090;6.692;2023-04-03T03:55:28;5.15;;;2.50;;
53751;SDS011;41095;53.090;6.692;2023-04-03T03:57:54;5.03;;;2.72;;
53751;SDS011;41095;53.090;6.692;2023-04-03T04:00:19;3.85;;;2.60;;
53751;SDS011;41095;53.090;6.692;2023-04-03T04:02:45;4.60;;;2.63;;
53751;SDS011;41095;53.090;6.692;2023-04-03T04:05:11;3.75;;;2.53;;
53751;SDS011;41095;53.090;6.692;2023-04-03T04:07:37;9.13;;;4.30;;
53751;SDS011;41095;53.090;6.692;2023-04-03T04:10:03;5.50;;;2.95;;
53751;SDS011;41095;53.090;6.692;2023-04-03T04:12:29;5.13;;;2.75;;
53751;SDS011;41095;53.090;6.692;2023-04-03T04:14:55;2.97;;;2.22;;
53751;SDS011;41095;53.090;6.692;2023-04-03T04:17:21;3.03;;;2.15;;
53751;SDS011;41095;53.090;6.692;2023-04-03T04:19:46;6.47;;;1.95;;
53751;SDS011;41095;53.090;6.692;2023-04-03T04:22:12;4.25;;;1.90;;
53751;SDS011;41095;53.090;6.692;2023-04-03T04:24:38;4.82;;;2.78;;
53751;SDS011;41095;53.090;6.692;2023-04-03T04:27:03;3.17;;;2.33;;
53751;SDS011;41095;53.090;6.692;2023-04-03T04:29:29;2.47;;;2.08;;
53751;SDS011;41095;53.090;6.692;2023-04-03T04:32:00;4.57;;;2.40;;
53751;SDS011;41095;53.090;6.692;2023-04-03T04:34:26;4.25;;;2.50;;
53751;SDS011;41095;53.090;6.692;2023-04-03T04:36:51;3.72;;;2.30;;
53751;SDS011;41095;53.090;6.692;2023-04-03T04:39:17;4.25;;;2.88;;
53751;SDS011;41095;53.090;6.692;2023-04-03T04:41:43;5.63;;;2.33;;
53751;SDS011;41095;53.090;6.692;2023-04-03T04:44:08;3.45;;;2.15;;
53751;SDS011;41095;53.090;6.692;2023-04-03T04:46:34;4.72;;;2.85;;
53751;SDS011;41095;53.090;6.692;2023-04-03T04:49:00;3.92;;;2.50;;
53751;SDS011;41095;53.090;6.692;2023-04-03T04:51:26;3.53;;;2.50;;
53751;SDS011;41095;53.090;6.692;2023-04-03T04:53:51;3.47;;;2.40;;
53751;SDS011;41095;53.090;6.692;2023-04-03T04:56:17;3.63;;;2.42;;
53751;SDS011;41095;53.090;6.692;2023-04-03T04:58:43;6.18;;;2.75;;
53751;SDS011;41095;53.090;6.692;2023-04-03T05:01:09;5.88;;;2.40;;
53751;SDS011;41095;53.090;6.692;2023-04-03T05:03:36;3.35;;;2.70;;
53751;SDS011;41095;53.090;6.692;2023-04-03T05:06:01;6.82;;;3.42;;
53751;SDS011;41095;53.090;6.692;2023-04-03T05:08:27;3.72;;;2.42;;
53751;SDS011;41095;53.090;6.692;2023-04-03T05:10:53;4.13;;;2.72;;
53751;SDS011;41095;53.090;6.692;2023-04-03T05:13:19;3.63;;;3.03;;
53751;SDS011;41095;53.090;6.692;2023-04-03T05:15:45;3.40;;;2.80;;
53751;SDS011;41095;53.090;6.692;2023-04-03T05:18:11;3.60;;;2.28;;
53751;SDS011;41095;53.090;6.692;2023-04-03T05:20:37;4.30;;;2.45;;
53751;SDS011;41095;53.090;6.692;2023-04-03T05:23:03;5.28;;;3.13;;
53751;SDS011;41095;53.090;6.692;2023-04-03T05:25:29;6.50;;;2.75;;
53751;SDS011;41095;53.090;6.692;2023-04-03T05:27:55;6.32;;;3.20;;
53751;SDS011;41095;53.090;6.692;2023-04-03T05:30:21;4.70;;;3.17;;
53751;SDS011;41095;53.090;6.692;2023-04-03T05:32:46;6.18;;;3.08;;
53751;SDS011;41095;53.090;6.692;2023-04-03T05:35:12;5.30;;;3.75;;
53751;SDS011;41095;53.090;6.692;2023-04-03T05:37:38;6.43;;;3.47;;
53751;SDS011;41095;53.090;6.692;2023-04-03T05:40:05;6.13;;;3.70;;
53751;SDS011;41095;53.090;6.692;2023-04-03T05:42:31;5.75;;;3.63;;
53751;SDS011;41095;53.090;6.692;2023-04-03T05:44:57;4.43;;;3.53;;
53751;SDS011;41095;53.090;6.692;2023-04-03T05:47:22;6.00;;;3.53;;
53751;SDS011;41095;53.090;6.692;2023-04-03T05:49:48;7.20;;;4.00;;
53751;SDS011;41095;53.090;6.692;2023-04-03T05:54:46;7.18;;;3.42;;
53751;SDS011;41095;53.090;6.692;2023-04-03T05:57:13;4.50;;;3.75;;
53751;SDS011;41095;53.090;6.692;2023-04-03T05:59:41;6.25;;;3.47;;
53751;SDS011;41095;53.090;6.692;2023-04-03T06:02:10;6.43;;;3.95;;
53751;SDS011;41095;53.090;6.692;2023-04-03T06:04:37;7.25;;;4.07;;
53751;SDS011;41095;53.090;6.692;2023-04-03T06:07:03;4.30;;;3.13;;
53751;SDS011;41095;53.090;6.692;2023-04-03T06:09:29;4.18;;;3.10;;
53751;SDS011;41095;53.090;6.692;2023-04-03T06:11:55;6.38;;;3.58;;
53751;SDS011;41095;53.090;6.692;2023-04-03T06:14:26;6.57;;;3.30;;
53751;SDS011;41095;53.090;6.692;2023-04-03T06:16:52;4.90;;;3.42;;
53751;SDS011;41095;53.090;6.692;2023-04-03T06:19:19;6.63;;;3.47;;
53751;SDS011;41095;53.090;6.692;2023-04-03T06:21:45;5.20;;;3.67;;
53751;SDS011;41095;53.090;6.692;2023-04-03T06:24:13;6.55;;;3.75;;
53751;SDS011;41095;53.090;6.692;2023-04-03T06:26:40;4.63;;;3.72;;
53751;SDS011;41095;53.090;6.692;2023-04-03T06:29:06;7.57;;;3.92;;
53751;SDS011;41095;53.090;6.692;2023-04-03T06:31:32;6.22;;;3.55;;
53751;SDS011;41095;53.090;6.692;2023-04-03T06:33:58;6.20;;;3.47;;
53751;SDS011;41095;53.090;6.692;2023-04-03T06:36:23;5.40;;;3.05;;
53751;SDS011;41095;53.090;6.692;2023-04-03T06:38:49;4.88;;;3.30;;
53751;SDS011;41095;53.090;6.692;2023-04-03T06:41:15;4.80;;;3.15;;
53751;SDS011;41095;53.090;6.692;2023-04-03T06:43:42;7.95;;;3.15;;
53751;SDS011;41095;53.090;6.692;2023-04-03T06:46:12;5.28;;;3.47;;
53751;SDS011;41095;53.090;6.692;2023-04-03T06:48:40;8.20;;;3.20;;
53751;SDS011;41095;53.090;6.692;2023-04-03T06:51:17;4.97;;;3.58;;
53751;SDS011;41095;53.090;6.692;2023-04-03T06:53:51;7.28;;;2.83;;
53751;SDS011;41095;53.090;6.692;2023-04-03T06:56:17;5.28;;;2.80;;
53751;SDS011;41095;53.090;6.692;2023-04-03T06:58:44;6.60;;;3.22;;
53751;SDS011;41095;53.090;6.692;2023-04-03T07:01:11;8.25;;;3.53;;
53751;SDS011;41095;53.090;6.692;2023-04-03T07:03:38;3.80;;;3.33;;
53751;SDS011;41095;53.090;6.692;2023-04-03T07:06:05;7.05;;;3.25;;
53751;SDS011;41095;53.090;6.692;2023-04-03T07:08:32;6.13;;;3.33;;
53751;SDS011;41095;53.090;6.692;2023-04-03T07:10:58;7.15;;;3.42;;
53751;SDS011;41095;53.090;6.692;2023-04-03T07:13:24;4.20;;;2.70;;
53751;SDS011;41095;53.090;6.692;2023-04-03T07:15:50;5.40;;;3.15;;
53751;SDS011;41095;53.090;6.692;2023-04-03T07:18:16;5.95;;;2.92;;
53751;SDS011;41095;53.090;6.692;2023-04-03T07:20:42;3.90;;;3.33;;
53751;SDS011;41095;53.090;6.692;2023-04-03T07:23:08;4.28;;;3.55;;
53751;SDS011;41095;53.090;6.692;2023-04-03T07:25:34;4.65;;;3.05;;
53751;SDS011;41095;53.090;6.692;2023-04-03T07:27:59;6.18;;;3.70;;
53751;SDS011;41095;53.090;6.692;2023-04-03T07:30:25;4.55;;;3.08;;
53751;SDS011;41095;53.090;6.692;2023-04-03T07:32:51;5.72;;;3.20;;
53751;SDS011;41095;53.090;6.692;2023-04-03T07:35:17;3.72;;;2.80;;
53751;SDS011;41095;53.090;6.692;2023-04-03T07:37:43;3.40;;;2.42;;
53751;SDS011;41095;53.090;6.692;2023-04-03T07:40:10;6.80;;;3.00;;
53751;SDS011;41095;53.090;6.692;2023-04-03T07:42:36;4.47;;;2.40;;
53751;SDS011;41095;53.090;6.692;2023-04-03T07:45:04;2.53;;;1.90;;
53751;SDS011;41095;53.090;6.692;2023-04-03T07:47:31;3.10;;;1.85;;
53751;SDS011;41095;53.090;6.692;2023-04-03T07:49:57;4.30;;;1.90;;
53751;SDS011;41095;53.090;6.692;2023-04-03T07:52:23;5.10;;;1.95;;
53751;SDS011;41095;53.090;6.692;2023-04-03T07:54:49;3.17;;;1.60;;
53751;SDS011;41095;53.090;6.692;2023-04-03T07:57:15;2.20;;;2.00;;
53751;SDS011;41095;53.090;6.692;2023-04-03T07:59:41;2.30;;;1.60;;
53751;SDS011;41095;53.090;6.692;2023-04-03T08:02:11;5.07;;;2.25;;
53751;SDS011;41095;53.090;6.692;2023-04-03T08:04:37;2.50;;;1.63;;
53751;SDS011;41095;53.090;6.692;2023-04-03T08:07:03;4.13;;;2.10;;
53751;SDS011;41095;53.090;6.692;2023-04-03T08:09:29;1.58;;;1.48;;
53751;SDS011;41095;53.090;6.692;2023-04-03T08:11:56;3.47;;;1.58;;
53751;SDS011;41095;53.090;6.692;2023-04-03T08:14:22;5.88;;;1.88;;
53751;SDS011;41095;53.090;6.692;2023-04-03T08:16:48;4.10;;;2.22;;
53751;SDS011;41095;53.090;6.692;2023-04-03T08:19:15;3.10;;;1.88;;
53751;SDS011;41095;53.090;6.692;2023-04-03T08:21:42;5.80;;;1.98;;
53751;SDS011;41095;53.090;6.692;2023-04-03T08:24:08;2.10;;;1.52;;
53751;SDS011;41095;53.090;6.692;2023-04-03T08:26:34;5.00;;;1.73;;
53751;SDS011;41095;53.090;6.692;2023-04-03T08:29:00;2.33;;;1.90;;
53751;SDS011;41095;53.090;6.692;2023-04-03T08:31:26;5.03;;;1.58;;
53751;SDS011;41095;53.090;6.692;2023-04-03T08:33:52;6.43;;;2.17;;
53751;SDS011;41095;53.090;6.692;2023-04-03T08:36:25;3.08;;;1.73;;
53751;SDS011;41095;53.090;6.692;2023-04-03T08:38:53;2.20;;;1.50;;
53751;SDS011;41095;53.090;6.692;2023-04-03T08:46:36;4.50;;;2.33;;
53751;SDS011;41095;53.090;6.692;2023-04-03T08:49:24;3.80;;;1.90;;
53751;SDS011;41095;53.090;6.692;2023-04-03T08:51:54;4.72;;;2.05;;
53751;SDS011;41095;53.090;6.692;2023-04-03T08:54:47;1.88;;;1.40;;
53751;SDS011;41095;53.090;6.692;2023-04-03T08:57:28;2.33;;;1.38;;
53751;SDS011;41095;53.090;6.692;2023-04-03T09:00:00;2.33;;;1.80;;
53751;SDS011;41095;53.090;6.692;2023-04-03T09:02:45;3.95;;;1.65;;
53751;SDS011;41095;53.090;6.692;2023-04-03T09:05:18;1.73;;;1.45;;
53751;SDS011;41095;53.090;6.692;2023-04-03T09:08:10;8.30;;;2.40;;
53751;SDS011;41095;53.090;6.692;2023-04-03T09:11:13;2.95;;;1.38;;
53751;SDS011;41095;53.090;6.692;2023-04-03T09:13:59;2.67;;;1.50;;
53751;SDS011;41095;53.090;6.692;2023-04-03T09:16:56;3.50;;;1.50;;
53751;SDS011;41095;53.090;6.692;2023-04-03T09:19:34;4.18;;;1.83;;
53751;SDS011;41095;53.090;6.692;2023-04-03T09:27:26;1.73;;;1.45;;
53751;SDS011;41095;53.090;6.692;2023-04-03T09:29:53;3.00;;;1.35;;
53751;SDS011;41095;53.090;6.692;2023-04-03T09:32:24;2.67;;;1.33;;
53751;SDS011;41095;53.090;6.692;2023-04-03T09:34:50;1.17;;;0.68;;
53751;SDS011;41095;53.090;6.692;2023-04-03T09:42:52;1.35;;;0.98;;
53751;SDS011;41095;53.090;6.692;2023-04-03T09:45:26;1.98;;;1.30;;
53751;SDS011;41095;53.090;6.692;2023-04-03T09:50:34;1.25;;;1.00;;
53751;SDS011;41095;53.090;6.692;2023-04-03T09:53:04;2.97;;;1.40;;
53751;SDS011;41095;53.090;6.692;2023-04-03T09:55:32;1.75;;;1.23;;
53751;SDS011;41095;53.090;6.692;2023-04-03T09:58:06;1.48;;;0.88;;
53751;SDS011;41095;53.090;6.692;2023-04-03T10:00:59;2.53;;;0.95;;
53751;SDS011;41095;53.090;6.692;2023-04-03T10:03:28;2.85;;;1.15;;
53751;SDS011;41095;53.090;6.692;2023-04-03T10:05:56;2.55;;;0.93;;
53751;SDS011;41095;53.090;6.692;2023-04-03T10:08:24;1.30;;;0.70;;
53751;SDS011;41095;53.090;6.692;2023-04-03T10:13:54;1.13;;;1.00;;
53751;SDS011;41095;53.090;6.692;2023-04-03T10:19:13;1.10;;;1.00;;
53751;SDS011;41095;53.090;6.692;2023-04-03T10:29:33;3.83;;;1.40;;
53751;SDS011;41095;53.090;6.692;2023-04-03T10:35:20;2.17;;;0.97;;
53751;SDS011;41095;53.090;6.692;2023-04-03T10:38:04;1.95;;;1.27;;
53751;SDS011;41095;53.090;6.692;2023-04-03T10:40:35;1.58;;;0.90;;
53751;SDS011;41095;53.090;6.692;2023-04-03T10:43:35;2.15;;;1.35;;
53751;SDS011;41095;53.090;6.692;2023-04-03T10:48:57;1.17;;;1.10;;
53751;SDS011;41095;53.090;6.692;2023-04-03T10:51:44;0.98;;;0.90;;
53751;SDS011;41095;53.090;6.692;2023-04-03T10:56:58;1.25;;;1.15;;
53751;SDS011;41095;53.090;6.692;2023-04-03T10:59:32;3.78;;;0.95;;
53751;SDS011;41095;53.090;6.692;2023-04-03T11:07:55;0.80;;;0.75;;
53751;SDS011;41095;53.090;6.692;2023-04-03T11:10:28;1.75;;;0.70;;
53751;SDS011;41095;53.090;6.692;2023-04-03T11:16:00;1.58;;;1.30;;
53751;SDS011;41095;53.090;6.692;2023-04-03T11:18:32;2.75;;;1.08;;
53751;SDS011;41095;53.090;6.692;2023-04-03T11:21:12;1.70;;;1.20;;
53751;SDS011;41095;53.090;6.692;2023-04-03T11:23:51;1.08;;;1.00;;
53751;SDS011;41095;53.090;6.692;2023-04-03T11:26:22;2.67;;;1.05;;
53751;SDS011;41095;53.090;6.692;2023-04-03T11:29:01;1.88;;;1.23;;
53751;SDS011;41095;53.090;6.692;2023-04-03T11:31:38;1.35;;;0.90;;
53751;SDS011;41095;53.090;6.692;2023-04-03T11:37:01;2.95;;;1.30;;
53751;SDS011;41095;53.090;6.692;2023-04-03T11:39:36;0.95;;;0.90;;
53751;SDS011;41095;53.090;6.692;2023-04-03T11:44:40;1.52;;;1.42;;
53751;SDS011;41095;53.090;6.692;2023-04-03T11:47:10;2.15;;;1.55;;
53751;SDS011;41095;53.090;6.692;2023-04-03T11:57:47;1.23;;;1.10;;
53751;SDS011;41095;53.090;6.692;2023-04-03T12:13:42;2.03;;;1.20;;
53751;SDS011;41095;53.090;6.692;2023-04-03T12:24:29;1.92;;;1.40;;
53751;SDS011;41095;53.090;6.692;2023-04-03T12:45:24;1.90;;;1.48;;
53751;SDS011;41095;53.090;6.692;2023-04-03T12:47:52;1.50;;;1.08;;
53751;SDS011;41095;53.090;6.692;2023-04-03T12:50:30;6.47;;;2.25;;
53751;SDS011;41095;53.090;6.692;2023-04-03T12:53:04;2.22;;;1.52;;
53751;SDS011;41095;53.090;6.692;2023-04-03T12:55:30;2.88;;;1.50;;
53751;SDS011;41095;53.090;6.692;2023-04-03T12:57:56;2.97;;;1.42;;
53751;SDS011;41095;53.090;6.692;2023-04-03T13:00:39;2.45;;;1.58;;
53751;SDS011;41095;53.090;6.692;2023-04-03T13:05:32;2.45;;;1.40;;
53751;SDS011;41095;53.090;6.692;2023-04-03T13:08:03;2.22;;;1.40;;
53751;SDS011;41095;53.090;6.692;2023-04-03T13:10:32;1.77;;;1.30;;
53751;SDS011;41095;53.090;6.692;2023-04-03T13:13:17;3.78;;;1.15;;
53751;SDS011;41095;53.090;6.692;2023-04-03T13:15:44;2.53;;;1.50;;
53751;SDS011;41095;53.090;6.692;2023-04-03T13:20:57;1.48;;;1.30;;
53751;SDS011;41095;53.090;6.692;2023-04-03T13:23:26;2.60;;;1.10;;
53751;SDS011;41095;53.090;6.692;2023-04-03T13:25:53;1.15;;;1.10;;
53751;SDS011;41095;53.090;6.692;2023-04-03T13:28:21;1.50;;;1.30;;
53751;SDS011;41095;53.090;6.692;2023-04-03T13:36:35;2.55;;;1.30;;
53751;SDS011;41095;53.090;6.692;2023-04-03T13:41:39;2.22;;;1.30;;
53751;SDS011;41095;53.090;6.692;2023-04-03T13:46:48;2.10;;;1.33;;
53751;SDS011;41095;53.090;6.692;2023-04-03T13:52:02;1.77;;;1.20;;
53751;SDS011;41095;53.090;6.692;2023-04-03T13:54:55;2.00;;;1.20;;
53751;SDS011;41095;53.090;6.692;2023-04-03T13:57:25;1.05;;;1.02;;
53751;SDS011;41095;53.090;6.692;2023-04-03T13:59:52;1.73;;;1.38;;
53751;SDS011;41095;53.090;6.692;2023-04-03T14:02:22;2.95;;;1.42;;
53751;SDS011;41095;53.090;6.692;2023-04-03T14:04:59;4.30;;;1.15;;
53751;SDS011;41095;53.090;6.692;2023-04-03T14:07:27;1.50;;;1.40;;
53751;SDS011;41095;53.090;6.692;2023-04-03T14:09:54;1.13;;;1.00;;
53751;SDS011;41095;53.090;6.692;2023-04-03T14:15:01;1.15;;;1.08;;
53751;SDS011;41095;53.090;6.692;2023-04-03T14:17:29;2.65;;;0.93;;
53751;SDS011;41095;53.090;6.692;2023-04-03T14:19:55;1.70;;;1.30;;
53751;SDS011;41095;53.090;6.692;2023-04-03T14:22:31;2.05;;;1.40;;
53751;SDS011;41095;53.090;6.692;2023-04-03T14:24:59;2.25;;;1.20;;
53751;SDS011;41095;53.090;6.692;2023-04-03T14:27:26;2.70;;;1.40;;
53751;SDS011;41095;53.090;6.692;2023-04-03T14:29:54;2.08;;;1.40;;
53751;SDS011;41095;53.090;6.692;2023-04-03T14:32:22;2.20;;;1.48;;
53751;SDS011;41095;53.090;6.692;2023-04-03T14:34:50;1.77;;;1.33;;
53751;SDS011;41095;53.090;6.692;2023-04-03T14:37:21;3.55;;;1.30;;
53751;SDS011;41095;53.090;6.692;2023-04-03T14:39:49;3.90;;;1.27;;
53751;SDS011;41095;53.090;6.692;2023-04-03T14:42:19;1.33;;;1.20;;
53751;SDS011;41095;53.090;6.692;2023-04-03T14:44:47;2.13;;;1.00;;
53751;SDS011;41095;53.090;6.692;2023-04-03T14:47:13;3.55;;;1.02;;
53751;SDS011;41095;53.090;6.692;2023-04-03T14:49:42;2.13;;;1.00;;
53751;SDS011;41095;53.090;6.692;2023-04-03T14:52:23;1.35;;;1.08;;
53751;SDS011;41095;53.090;6.692;2023-04-03T14:54:55;0.90;;;0.88;;
53751;SDS011;41095;53.090;6.692;2023-04-03T14:57:24;2.95;;;0.95;;
53751;SDS011;41095;53.090;6.692;2023-04-03T14:59:52;0.75;;;0.73;;
53751;SDS011;41095;53.090;6.692;2023-04-03T15:02:25;1.45;;;0.70;;
53751;SDS011;41095;53.090;6.692;2023-04-03T15:04:56;1.55;;;1.00;;
53751;SDS011;41095;53.090;6.692;2023-04-03T15:07:23;1.60;;;0.93;;
53751;SDS011;41095;53.090;6.692;2023-04-03T15:09:51;1.10;;;1.00;;
53751;SDS011;41095;53.090;6.692;2023-04-03T15:12:17;1.25;;;1.00;;
53751;SDS011;41095;53.090;6.692;2023-04-03T15:14:43;2.08;;;1.17;;
53751;SDS011;41095;53.090;6.692;2023-04-03T15:17:14;1.67;;;1.48;;
53751;SDS011;41095;53.090;6.692;2023-04-03T15:19:44;2.22;;;1.08;;
53751;SDS011;41095;53.090;6.692;2023-04-03T15:22:14;2.17;;;1.08;;
53751;SDS011;41095;53.090;6.692;2023-04-03T15:24:41;2.42;;;1.38;;
53751;SDS011;41095;53.090;6.692;2023-04-03T15:27:07;1.63;;;1.10;;
53751;SDS011;41095;53.090;6.692;2023-04-03T15:29:33;4.45;;;1.15;;
53751;SDS011;41095;53.090;6.692;2023-04-03T15:31:59;2.85;;;1.17;;
53751;SDS011;41095;53.090;6.692;2023-04-03T15:34:25;2.22;;;1.58;;
53751;SDS011;41095;53.090;6.692;2023-04-03T15:36:51;2.40;;;1.40;;
53751;SDS011;41095;53.090;6.692;2023-04-03T15:39:19;3.45;;;1.88;;
53751;SDS011;41095;53.090;6.692;2023-04-03T15:41:45;3.10;;;1.30;;
53751;SDS011;41095;53.090;6.692;2023-04-03T15:44:11;2.00;;;1.15;;
53751;SDS011;41095;53.090;6.692;2023-04-03T15:46:38;2.20;;;1.20;;
53751;SDS011;41095;53.090;6.692;2023-04-03T15:49:04;2.15;;;1.40;;
53751;SDS011;41095;53.090;6.692;2023-04-03T15:51:30;2.38;;;1.30;;
53751;SDS011;41095;53.090;6.692;2023-04-03T15:53:56;1.33;;;1.15;;
53751;SDS011;41095;53.090;6.692;2023-04-03T15:56:22;1.67;;;1.25;;
53751;SDS011;41095;53.090;6.692;2023-04-03T15:58:47;1.13;;;0.68;;
53751;SDS011;41095;53.090;6.692;2023-04-03T16:01:13;2.47;;;1.27;;
53751;SDS011;41095;53.090;6.692;2023-04-03T16:03:40;1.77;;;1.25;;
53751;SDS011;41095;53.090;6.692;2023-04-03T16:06:11;2.15;;;1.40;;
53751;SDS011;41095;53.090;6.692;2023-04-03T16:08:37;2.45;;;1.13;;
53751;SDS011;41095;53.090;6.692;2023-04-03T16:11:03;2.85;;;1.20;;
53751;SDS011;41095;53.090;6.692;2023-04-03T16:13:29;2.05;;;1.02;;
53751;SDS011;41095;53.090;6.692;2023-04-03T16:15:55;1.95;;;1.05;;
53751;SDS011;41095;53.090;6.692;2023-04-03T16:18:21;1.30;;;0.80;;
53751;SDS011;41095;53.090;6.692;2023-04-03T16:20:47;5.30;;;1.90;;
53751;SDS011;41095;53.090;6.692;2023-04-03T16:23:13;1.42;;;0.95;;
53751;SDS011;41095;53.090;6.692;2023-04-03T16:25:39;1.98;;;1.13;;
53751;SDS011;41095;53.090;6.692;2023-04-03T16:28:05;1.52;;;1.40;;
53751;SDS011;41095;53.090;6.692;2023-04-03T16:30:31;2.22;;;1.10;;
53751;SDS011;41095;53.090;6.692;2023-04-03T16:32:58;2.30;;;1.20;;
53751;SDS011;41095;53.090;6.692;2023-04-03T16:35:23;1.77;;;1.10;;
53751;SDS011;41095;53.090;6.692;2023-04-03T16:37:49;1.48;;;1.08;;
53751;SDS011;41095;53.090;6.692;2023-04-03T16:40:15;2.85;;;2.13;;
53751;SDS011;41095;53.090;6.692;2023-04-03T16:42:40;1.60;;;1.13;;
53751;SDS011;41095;53.090;6.692;2023-04-03T16:45:06;3.80;;;1.42;;
53751;SDS011;41095;53.090;6.692;2023-04-03T16:47:32;1.25;;;1.10;;
53751;SDS011;41095;53.090;6.692;2023-04-03T16:49:58;3.38;;;1.33;;
53751;SDS011;41095;53.090;6.692;2023-04-03T16:52:24;1.45;;;1.05;;
53751;SDS011;41095;53.090;6.692;2023-04-03T16:54:50;1.20;;;1.10;;
53751;SDS011;41095;53.090;6.692;2023-04-03T16:57:20;1.55;;;1.30;;
53751;SDS011;41095;53.090;6.692;2023-04-03T16:59:47;2.58;;;1.30;;
53751;SDS011;41095;53.090;6.692;2023-04-03T17:02:13;1.50;;;1.40;;
53751;SDS011;41095;53.090;6.692;2023-04-03T17:04:38;3.75;;;1.48;;
53751;SDS011;41095;53.090;6.692;2023-04-03T17:07:04;1.60;;;1.33;;
53751;SDS011;41095;53.090;6.692;2023-04-03T17:09:31;3.42;;;1.55;;
53751;SDS011;41095;53.090;6.692;2023-04-03T17:11:58;1.63;;;1.42;;